CheckWX is a tool to help pilots better visualize weather data.  It is not intended as a substitute for an official pre-flight weather briefing.

04:51:15 UTC

KBEC METAR
Beech Factory Airport
Wichita, Kansas, USA
Current

16 mins ago

KBEC 260435Z AUTO 10007KT 10SM CLR 21/20 A2982 RMK AO2 T02080195
Observed
Aug-26 @ 04:35 UTC
Wind
  • 100° at 7 KTS
Visibility
10 SM
Flight Rules
VFR
Cloud Levels
  • Clear skies
Temperature
21°C / 70°F
Dewpoint
20°C / 68°F
Humidity
94%
Altimeter
29.82" Hg
Pressure
1009.82 hPa
Previous

36 mins ago

KBEC 260415Z AUTO 11007KT 10SM CLR 21/20 A2982 RMK AO2 T02100195
Observed
Aug-26 @ 04:15 UTC
Wind
  • 110° at 7 KTS
Visibility
10 SM
Flight Rules
VFR
Cloud Levels
  • Clear skies
Temperature
21°C / 70°F
Dewpoint
20°C / 68°F
Humidity
94%
Altimeter
29.82" Hg
Pressure
1009.82 hPa
Previous

56 mins ago

KBEC 260355Z AUTO 10006KT 10SM CLR 21/20 A2982 RMK AO2 T02130196
Observed
Aug-26 @ 03:55 UTC
Wind
  • 100° at 6 KTS
Visibility
10 SM
Flight Rules
VFR
Cloud Levels
  • Clear skies
Temperature
21°C / 70°F
Dewpoint
20°C / 68°F
Humidity
94%
Altimeter
29.82" Hg
Pressure
1009.82 hPa